createdAt,value
2022-11-29T00:01:46.786Z,21.50
2022-11-29T00:04:17.670Z,21.20
2022-11-29T00:06:46.502Z,21.50
2022-11-29T00:09:15.436Z,22.60
2022-11-29T00:12:02.940Z,23.30
2022-11-29T00:14:31.799Z,23.60
2022-11-29T00:17:04.662Z,26.00
2022-11-29T00:19:35.832Z,23.00
2022-11-29T00:22:05.080Z,22.00
2022-11-29T00:24:34.722Z,20.60
2022-11-29T00:27:03.630Z,24.40
2022-11-29T00:29:32.740Z,23.30
2022-11-29T00:32:01.689Z,23.30
2022-11-29T00:34:30.415Z,25.30
2022-11-29T00:40:01.423Z,23.80
2022-11-29T00:42:30.379Z,23.20
2022-11-29T00:44:59.140Z,24.40
2022-11-29T00:47:28.117Z,24.20
2022-11-29T00:49:56.772Z,24.10
2022-11-29T00:52:25.436Z,24.10
2022-11-29T00:54:54.463Z,25.80
2022-11-29T00:57:23.200Z,22.20
2022-11-29T00:59:52.215Z,24.90
2022-11-29T01:02:21.545Z,24.00
2022-11-29T01:04:50.322Z,23.00
2022-11-29T01:07:19.184Z,24.20
2022-11-29T01:09:47.848Z,23.40
2022-11-29T01:12:21.457Z,26.70
2022-11-29T01:14:51.825Z,23.40
2022-11-29T01:17:20.583Z,26.00
2022-11-29T01:23:23.856Z,25.20
2022-11-29T01:26:08.370Z,24.80
2022-11-29T01:28:38.263Z,23.40
2022-11-29T01:31:13.650Z,23.90
2022-11-29T01:33:42.716Z,22.60
2022-11-29T01:36:13.597Z,22.90
2022-11-29T01:38:42.840Z,24.70
2022-11-29T01:41:15.006Z,22.10
2022-11-29T01:44:13.959Z,26.80
2022-11-29T01:46:46.361Z,28.00
2022-11-29T01:49:28.535Z,24.00
2022-11-29T01:52:23.648Z,21.00
2022-11-29T01:54:57.037Z,22.10
2022-11-29T01:57:26.388Z,27.40
2022-11-29T02:00:01.368Z,24.40
2022-11-29T02:02:37.596Z,23.60
2022-11-29T02:05:07.334Z,24.00
2022-11-29T02:07:37.112Z,23.60
2022-11-29T02:10:07.829Z,25.00
2022-11-29T02:12:55.273Z,25.80
2022-11-29T02:16:07.822Z,20.80
2022-11-29T02:19:20.007Z,22.70
2022-11-29T02:22:14.667Z,22.90
2022-11-29T02:25:23.539Z,22.90
2022-11-29T02:28:41.306Z,23.50
2022-11-29T02:31:57.948Z,22.10
2022-11-29T02:34:48.002Z,20.60
2022-11-29T02:37:28.790Z,23.20
2022-11-29T02:40:41.388Z,24.20
2022-11-29T02:43:53.881Z,24.80
2022-11-29T02:46:47.526Z,22.10
2022-11-29T02:49:28.852Z,20.80
2022-11-29T02:52:03.179Z,22.00
2022-11-29T02:54:58.885Z,23.10
2022-11-29T02:57:56.842Z,21.90
2022-11-29T03:00:26.148Z,22.80
2022-11-29T03:03:17.879Z,21.90
2022-11-29T03:06:12.709Z,23.30
2022-11-29T03:08:56.345Z,21.80
2022-11-29T03:11:58.059Z,22.00
2022-11-29T03:14:47.627Z,22.10
2022-11-29T03:17:40.849Z,23.50
2022-11-29T03:23:19.851Z,21.60
2022-11-29T03:26:25.897Z,21.80
2022-11-29T03:29:07.523Z,20.40
2022-11-29T03:31:46.671Z,20.60
2022-11-29T03:34:43.834Z,20.40
2022-11-29T03:37:28.795Z,19.20
2022-11-29T03:40:08.974Z,23.60
2022-11-29T03:43:03.671Z,32.10
2022-11-29T03:46:01.930Z,44.70
2022-11-29T03:48:37.794Z,45.50
2022-11-29T03:51:40.198Z,50.10
2022-11-29T03:54:13.632Z,71.10
2022-11-29T03:56:43.098Z,86.60
2022-11-29T03:59:29.882Z,99.40
2022-11-29T04:02:40.104Z,95.00
2022-11-29T04:05:39.310Z,99.10
2022-11-29T04:09:19.019Z,98.20
2022-11-29T04:12:22.494Z,105.20
2022-11-29T04:15:48.778Z,108.40
2022-11-29T04:18:59.364Z,114.70
2022-11-29T04:22:02.607Z,125.30
2022-11-29T04:25:09.561Z,129.20
2022-11-29T04:27:51.335Z,131.90
2022-11-29T04:30:25.718Z,124.90
2022-11-29T04:33:25.293Z,126.80
2022-11-29T04:36:12.079Z,130.90
2022-11-29T04:39:21.858Z,345.20
2022-11-29T04:42:18.668Z,138.80
2022-11-29T04:44:54.264Z,123.20
2022-11-29T04:47:41.200Z,131.00
2022-11-29T04:50:47.688Z,135.20
2022-11-29T04:53:56.830Z,132.70
2022-11-29T04:56:52.612Z,121.50
2022-11-29T04:59:26.855Z,120.10
2022-11-29T05:02:08.144Z,134.30
2022-11-29T05:04:59.560Z,135.60
2022-11-29T05:08:03.176Z,138.30
2022-11-29T05:11:22.079Z,134.00
2022-11-29T05:14:35.879Z,138.10
2022-11-29T05:17:31.927Z,134.80
2022-11-29T05:34:45.271Z,137.80
2022-11-29T05:37:39.368Z,137.40
2022-11-29T05:40:43.208Z,150.50
2022-11-29T05:44:05.405Z,145.30
2022-11-29T05:47:06.427Z,137.10
2022-11-29T05:50:19.419Z,149.30
2022-11-29T05:53:06.768Z,160.60
2022-11-29T05:56:03.107Z,155.20
2022-11-29T05:59:03.024Z,146.00
2022-11-29T06:01:56.671Z,140.60
2022-11-29T06:04:53.930Z,152.70
2022-11-29T06:08:06.970Z,147.90
2022-11-29T06:10:41.689Z,140.10
2022-11-29T06:13:45.726Z,143.00
2022-11-29T06:17:09.580Z,146.30
2022-11-29T06:19:53.775Z,163.20
2022-11-29T06:22:46.239Z,164.30
2022-11-29T06:25:27.671Z,170.50
2022-11-29T06:28:31.056Z,150.90
2022-11-29T06:31:27.802Z,151.40
2022-11-29T06:34:11.397Z,155.70
2022-11-29T06:36:58.013Z,149.30
2022-11-29T06:39:28.431Z,139.00
2022-11-29T06:42:04.355Z,149.80
2022-11-29T13:52:47.408Z,0.10
2022-11-29T13:56:15.472Z,0.00
2022-11-29T13:58:56.503Z,0.20
2022-11-29T14:01:30.833Z,0.10
2022-11-29T14:04:32.905Z,0.10
2022-11-29T14:07:24.967Z,0.10
2022-11-29T14:10:32.494Z,0.10
2022-11-29T14:13:02.089Z,0.10
2022-11-29T19:55:59.189Z,43.40
2022-11-29T19:58:27.011Z,46.10
2022-11-29T20:00:54.692Z,42.40
2022-11-29T20:03:22.669Z,43.20
2022-11-29T20:05:55.035Z,45.80
2022-11-29T20:08:22.974Z,48.30
2022-11-29T20:10:50.695Z,41.30
2022-11-29T20:13:18.260Z,38.70
2022-11-29T20:15:46.560Z,42.90
2022-11-29T20:18:14.373Z,42.50
2022-11-29T20:20:42.418Z,42.40
2022-11-29T20:23:10.281Z,40.10
2022-11-29T20:25:38.125Z,42.60
2022-11-29T20:28:06.483Z,45.30
2022-11-29T20:30:34.409Z,41.50
2022-11-29T20:33:02.295Z,43.30
2022-11-29T20:35:30.133Z,33.50
2022-11-29T20:38:36.838Z,39.80
2022-11-29T20:41:19.664Z,38.40
2022-11-29T20:43:55.589Z,39.40
2022-11-29T20:46:25.320Z,41.30
2022-11-29T20:48:53.541Z,40.10
2022-11-29T20:51:31.147Z,38.60
2022-11-29T20:53:58.657Z,41.90
2022-11-29T20:56:28.237Z,42.80
2022-11-29T20:58:56.384Z,44.10
2022-11-29T21:01:24.816Z,46.50
2022-11-29T21:03:52.196Z,40.30
2022-11-29T21:06:19.744Z,44.00
2022-11-29T21:08:47.351Z,43.00
2022-11-29T21:11:15.733Z,45.00
2022-11-29T21:13:43.758Z,34.50
2022-11-29T21:16:16.848Z,50.10
2022-11-29T21:18:44.954Z,45.10
2022-11-29T21:21:20.912Z,49.00
2022-11-29T21:24:20.921Z,46.40
2022-11-29T21:26:52.259Z,48.80
2022-11-29T21:31:52.847Z,49.90
2022-11-29T21:37:00.649Z,41.00
2022-11-29T21:39:39.388Z,53.80
2022-11-29T21:42:06.849Z,43.40
2022-11-29T21:44:34.427Z,48.20
2022-11-29T21:47:01.962Z,48.70
2022-11-29T21:49:29.494Z,53.80
2022-11-29T21:51:59.744Z,53.60
2022-11-29T21:54:28.999Z,48.50
2022-11-29T21:56:56.398Z,53.70
2022-11-29T21:59:27.666Z,50.20
2022-11-29T22:01:55.467Z,43.60
2022-11-29T22:04:23.013Z,57.00
2022-11-29T22:06:50.365Z,51.60
2022-11-29T22:09:18.005Z,51.00
2022-11-29T22:11:45.392Z,37.00
2022-11-29T22:14:18.532Z,53.00
2022-11-29T22:16:50.701Z,46.20
2022-11-29T22:19:27.390Z,56.50
2022-11-29T22:21:58.529Z,51.00
2022-11-29T22:26:55.288Z,17.40
2022-11-29T22:29:23.920Z,37.50
2022-11-29T22:31:54.715Z,41.40
2022-11-29T22:34:24.616Z,43.60
2022-11-29T22:36:52.880Z,50.10
2022-11-29T22:39:20.216Z,46.90
2022-11-29T22:41:53.671Z,48.40
2022-11-29T22:44:23.557Z,60.00
2022-11-29T22:46:51.508Z,56.80
2022-11-29T22:49:19.263Z,56.70
2022-11-29T22:51:46.931Z,68.50
2022-11-29T22:54:15.890Z,77.60
2022-11-29T22:56:44.558Z,70.50
2022-11-29T22:59:11.794Z,93.10
2022-11-29T23:01:40.394Z,81.10
2022-11-29T23:04:10.781Z,72.10
2022-11-29T23:06:43.187Z,69.90
2022-11-29T23:09:21.732Z,69.10
2022-11-29T23:11:51.965Z,74.40
2022-11-29T23:14:20.252Z,71.40
2022-11-29T23:16:48.001Z,66.10
2022-11-29T23:19:16.912Z,85.70
2022-11-29T23:21:45.317Z,67.90
2022-11-29T23:24:14.309Z,66.00
2022-11-29T23:26:45.397Z,69.90
2022-11-29T23:31:46.448Z,63.40
2022-11-29T23:34:14.151Z,62.40
2022-11-29T23:36:41.677Z,57.00
2022-11-29T23:39:10.035Z,52.40
2022-11-29T23:41:37.399Z,58.70
2022-11-29T23:44:05.618Z,59.70
2022-11-29T23:46:34.481Z,44.30
2022-11-29T23:49:02.086Z,38.70
2022-11-29T23:51:29.782Z,47.60
2022-11-29T23:53:57.425Z,49.30
2022-11-29T23:56:25.050Z,52.20
2022-11-29T23:58:52.923Z,64.90
